createdAt,value
2018-12-08T00:00:10.328Z,8.96
2018-12-08T00:01:15.984Z,8.90
2018-12-08T00:02:21.618Z,8.97
2018-12-08T00:03:27.265Z,8.85
2018-12-08T00:04:32.921Z,8.88
2018-12-08T00:05:38.509Z,8.73
2018-12-08T00:06:44.119Z,8.77
2018-12-08T00:07:49.862Z,8.68
2018-12-08T00:08:55.409Z,8.52
2018-12-08T00:10:01.093Z,8.52
2018-12-08T00:11:06.733Z,8.54
2018-12-08T00:12:12.345Z,8.47
2018-12-08T00:13:17.940Z,8.42
2018-12-08T00:14:23.551Z,8.51
2018-12-08T00:15:29.161Z,8.52
2018-12-08T00:16:34.764Z,8.40
2018-12-08T00:17:40.367Z,8.42
2018-12-08T00:18:45.990Z,8.46
2018-12-08T00:19:51.602Z,8.40
2018-12-08T00:20:57.238Z,8.42
2018-12-08T00:22:02.813Z,8.27
2018-12-08T00:23:08.496Z,8.30
2018-12-08T00:24:14.136Z,8.17
2018-12-08T00:25:19.711Z,8.29
2018-12-08T00:26:25.313Z,8.18
2018-12-08T00:27:30.947Z,8.19
2018-12-08T00:28:36.562Z,8.14
2018-12-08T00:29:42.168Z,8.12
2018-12-08T00:30:58.714Z,8.01
2018-12-08T00:32:05.222Z,7.98
2018-12-08T00:33:10.828Z,7.92
2018-12-08T00:34:16.455Z,7.98
2018-12-08T00:35:22.128Z,8.01
2018-12-08T00:36:27.744Z,7.96
2018-12-08T00:37:33.340Z,7.89
2018-12-08T00:38:38.943Z,7.80
2018-12-08T00:39:44.589Z,7.95
2018-12-08T00:40:50.262Z,7.90
2018-12-08T00:41:55.817Z,7.90
2018-12-08T00:43:01.416Z,7.73
2018-12-08T00:44:07.017Z,7.71
2018-12-08T00:45:12.588Z,7.71
2018-12-08T00:46:18.201Z,7.62
2018-12-08T00:47:23.840Z,7.68
2018-12-08T00:48:29.482Z,7.68
2018-12-08T00:49:35.137Z,7.82
2018-12-08T00:50:40.755Z,7.80
2018-12-08T00:51:46.340Z,7.74
2018-12-08T00:52:51.766Z,7.76
2018-12-08T00:53:57.136Z,7.86
2018-12-08T00:55:02.768Z,7.85
2018-12-08T00:56:08.369Z,7.67
2018-12-08T00:57:13.996Z,7.76
2018-12-08T00:58:19.573Z,7.71
2018-12-08T00:59:25.339Z,7.74
2018-12-08T01:00:30.806Z,7.71
2018-12-08T01:01:36.421Z,7.65
2018-12-08T01:02:42.617Z,7.66
2018-12-08T01:03:49.449Z,7.68
2018-12-08T01:04:55.061Z,7.72
2018-12-08T01:06:00.671Z,7.74
2018-12-08T01:07:06.289Z,7.69
2018-12-08T01:08:11.878Z,7.74
2018-12-08T01:09:17.155Z,7.75
2018-12-08T01:10:23.704Z,7.63
2018-12-08T01:11:29.313Z,7.63
2018-12-08T01:12:34.640Z,7.72
2018-12-08T01:13:40.240Z,7.63
2018-12-08T01:14:45.489Z,7.81
2018-12-08T01:15:51.110Z,7.72
2018-12-08T01:16:56.724Z,7.60
2018-12-08T01:18:02.338Z,7.67
2018-12-08T01:19:07.923Z,7.56
2018-12-08T01:20:13.163Z,7.71
2018-12-08T01:21:18.773Z,7.60
2018-12-08T01:22:24.343Z,7.59
2018-12-08T01:23:29.962Z,7.55
2018-12-08T01:24:35.579Z,7.61
2018-12-08T01:25:41.161Z,7.63
2018-12-08T01:26:46.777Z,7.65
2018-12-08T01:27:52.415Z,7.70
2018-12-08T01:28:57.994Z,7.78
2018-12-08T01:30:03.258Z,7.68
2018-12-08T01:31:08.860Z,7.65
2018-12-08T01:32:14.470Z,7.67
2018-12-08T01:33:20.075Z,7.74
2018-12-08T01:34:25.675Z,7.73
2018-12-08T01:35:31.302Z,7.66
2018-12-08T01:36:36.920Z,7.50
2018-12-08T01:37:42.538Z,7.62
2018-12-08T01:38:48.143Z,7.44
2018-12-08T01:39:53.792Z,7.48
2018-12-08T01:40:59.401Z,7.43
2018-12-08T01:42:04.691Z,7.39
2018-12-08T01:43:10.278Z,7.47
2018-12-08T01:44:16.187Z,7.62
2018-12-08T01:45:21.823Z,7.68
2018-12-08T01:46:27.391Z,7.48
2018-12-08T01:47:33.024Z,7.48
2018-12-08T01:48:38.363Z,7.36
2018-12-08T01:49:43.975Z,7.33
2018-12-08T01:50:49.200Z,7.26
2018-12-08T01:51:54.799Z,7.10
2018-12-08T01:53:00.444Z,7.14
2018-12-08T01:54:05.706Z,7.05
2018-12-08T01:55:11.304Z,7.14
2018-12-08T01:56:16.892Z,7.20
2018-12-08T01:57:22.533Z,7.15
2018-12-08T01:58:28.162Z,7.09
2018-12-08T01:59:33.800Z,6.99
2018-12-08T02:00:39.416Z,6.94
2018-12-08T02:01:43.994Z,6.94
2018-12-08T02:02:48.575Z,6.90
2018-12-08T02:03:53.172Z,7.04
2018-12-08T02:04:57.804Z,6.96
2018-12-08T02:06:02.384Z,6.94
2018-12-08T02:07:06.968Z,6.85
2018-12-08T02:08:11.545Z,6.93
2018-12-08T02:09:16.158Z,6.83
2018-12-08T02:10:21.784Z,6.77
2018-12-08T02:11:27.376Z,6.71
2018-12-08T02:12:32.975Z,6.51
2018-12-08T02:13:38.585Z,6.42
2018-12-08T02:14:44.180Z,6.43
2018-12-08T02:15:49.804Z,6.55
2018-12-08T02:16:55.427Z,6.61
2018-12-08T02:18:01.059Z,6.68
2018-12-08T02:19:06.673Z,6.54
2018-12-08T02:20:11.925Z,6.54
2018-12-08T02:21:17.502Z,6.50
2018-12-08T02:22:23.082Z,6.56
2018-12-08T02:23:28.706Z,6.75
2018-12-08T02:24:34.419Z,6.86
2018-12-08T02:25:40.016Z,6.76
2018-12-08T02:26:46.226Z,6.78
2018-12-08T02:27:52.332Z,6.78
2018-12-08T02:28:57.936Z,6.74
2018-12-08T02:30:03.173Z,6.69
2018-12-08T02:31:09.853Z,6.62
2018-12-08T02:32:15.113Z,6.57
2018-12-08T02:33:20.755Z,6.52
2018-12-08T02:34:26.367Z,6.52
2018-12-08T02:35:31.985Z,6.56
2018-12-08T02:36:37.579Z,6.54
2018-12-08T02:37:44.091Z,6.60
2018-12-08T02:38:49.701Z,6.64
2018-12-08T02:39:56.218Z,6.64
2018-12-08T02:41:01.828Z,6.49
2018-12-08T02:42:07.433Z,6.41
2018-12-08T02:43:13.039Z,6.47
2018-12-08T02:44:18.318Z,6.55
2018-12-08T02:45:23.916Z,6.56
2018-12-08T02:46:29.754Z,6.56
2018-12-08T02:47:35.348Z,6.49
2018-12-08T02:48:41.041Z,6.46
2018-12-08T02:49:46.668Z,6.55
2018-12-08T02:50:52.332Z,6.56
2018-12-08T02:51:57.704Z,6.48
2018-12-08T02:53:03.296Z,6.54
2018-12-08T02:54:08.922Z,6.52
2018-12-08T02:55:14.569Z,6.53
2018-12-08T02:56:20.205Z,6.47
2018-12-08T02:57:25.854Z,6.40
2018-12-08T02:58:31.481Z,6.44
2018-12-08T02:59:37.128Z,6.31
2018-12-08T03:00:42.746Z,6.46
2018-12-08T03:01:48.350Z,6.39
2018-12-08T03:02:53.928Z,6.34
2018-12-08T03:03:59.502Z,6.27
2018-12-08T03:05:04.413Z,6.27
2018-12-08T03:06:09.684Z,6.35
2018-12-08T03:07:15.259Z,6.34
2018-12-08T03:08:20.854Z,6.39
2018-12-08T03:09:26.441Z,6.34
2018-12-08T03:10:32.080Z,6.36
2018-12-08T03:11:37.765Z,6.41
2018-12-08T03:12:43.359Z,6.48
2018-12-08T03:13:49.004Z,6.39
2018-12-08T03:14:54.620Z,6.29
2018-12-08T03:16:00.328Z,6.22
2018-12-08T03:17:05.220Z,6.29
2018-12-08T03:18:10.821Z,6.25
2018-12-08T03:19:16.396Z,6.19
2018-12-08T03:20:22.007Z,6.24
2018-12-08T03:21:27.632Z,6.18
2018-12-08T03:22:33.001Z,6.16
2018-12-08T03:23:38.606Z,6.04
2018-12-08T03:24:44.210Z,6.12
2018-12-08T03:25:49.829Z,6.28
2018-12-08T03:26:55.439Z,6.24
2018-12-08T03:28:01.080Z,6.25
2018-12-08T03:29:06.739Z,6.32
2018-12-08T03:30:12.347Z,6.29
2018-12-08T03:31:17.967Z,6.43
2018-12-08T03:32:23.586Z,6.18
2018-12-08T03:33:29.187Z,6.14
2018-12-08T03:34:34.816Z,6.12
2018-12-08T03:35:40.439Z,6.19
2018-12-08T03:36:46.050Z,6.06
2018-12-08T03:37:51.665Z,6.14
2018-12-08T03:38:57.239Z,6.05
2018-12-08T03:40:02.885Z,6.15
2018-12-08T03:41:07.914Z,6.02
2018-12-08T03:42:13.506Z,6.05
2018-12-08T03:43:19.116Z,5.89
2018-12-08T03:44:25.801Z,6.03
2018-12-08T03:45:31.410Z,6.17
2018-12-08T03:46:37.038Z,6.26
2018-12-08T03:47:42.639Z,6.24
2018-12-08T03:48:48.251Z,6.10
2018-12-08T03:49:54.772Z,6.13
2018-12-08T03:51:00.428Z,6.11
2018-12-08T03:52:06.113Z,6.14
2018-12-08T03:53:11.754Z,6.05
2018-12-08T03:54:17.484Z,6.05
2018-12-08T03:55:23.105Z,6.04
2018-12-08T03:56:28.765Z,6.01
2018-12-08T03:57:34.408Z,5.98
2018-12-08T03:58:40.014Z,5.93
2018-12-08T03:59:45.616Z,5.89
2018-12-08T04:00:50.880Z,6.06
2018-12-08T04:01:56.458Z,6.01
2018-12-08T04:03:02.111Z,6.07
2018-12-08T04:04:07.397Z,6.02
2018-12-08T04:05:12.990Z,5.93
2018-12-08T04:06:18.642Z,5.88
2018-12-08T04:07:24.262Z,5.95
2018-12-08T04:08:29.869Z,5.94
2018-12-08T04:09:35.470Z,6.02
2018-12-08T04:10:41.107Z,6.06
2018-12-08T04:11:46.758Z,6.08
2018-12-08T04:12:52.371Z,6.08
2018-12-08T04:13:57.585Z,6.16
2018-12-08T04:15:03.197Z,6.05
2018-12-08T04:16:08.595Z,6.01
2018-12-08T04:17:14.233Z,6.11
2018-12-08T04:18:20.418Z,6.11
2018-12-08T04:19:26.022Z,6.10
2018-12-08T04:20:31.698Z,6.11
2018-12-08T04:21:37.375Z,5.95
2018-12-08T04:22:42.963Z,5.94
2018-12-08T04:23:48.553Z,6.06
2018-12-08T04:24:54.185Z,5.91
2018-12-08T04:25:59.829Z,5.91
2018-12-08T04:27:05.578Z,5.95
2018-12-08T04:28:11.091Z,5.94
2018-12-08T04:29:16.680Z,5.90
2018-12-08T04:30:22.315Z,6.00
2018-12-08T04:31:27.941Z,5.97
2018-12-08T04:32:33.550Z,6.05
2018-12-08T04:33:39.166Z,5.97
2018-12-08T04:34:44.769Z,5.97
2018-12-08T04:35:50.388Z,5.94
2018-12-08T04:36:56.016Z,5.91
2018-12-08T04:38:01.646Z,6.08
2018-12-08T04:39:06.597Z,6.12
2018-12-08T04:40:11.866Z,6.12
2018-12-08T04:41:17.579Z,6.04
2018-12-08T04:42:23.194Z,6.02
2018-12-08T04:43:28.801Z,6.08
2018-12-08T04:44:34.584Z,5.92
2018-12-08T04:45:40.096Z,5.98
2018-12-08T04:46:45.738Z,5.95
2018-12-08T04:47:51.324Z,5.86
2018-12-08T04:48:56.988Z,5.93
2018-12-08T04:50:02.601Z,5.85
2018-12-08T04:51:08.235Z,5.97
2018-12-08T04:52:13.845Z,5.98
2018-12-08T04:53:19.451Z,6.01
2018-12-08T04:54:25.080Z,5.98
2018-12-08T04:55:30.681Z,5.97
2018-12-08T04:56:36.311Z,5.90
2018-12-08T04:57:41.953Z,5.89
2018-12-08T04:58:47.572Z,6.03
2018-12-08T04:59:53.235Z,6.09
2018-12-08T05:00:58.902Z,5.97
2018-12-08T05:02:04.264Z,6.04
2018-12-08T05:03:09.525Z,6.14
2018-12-08T05:04:15.114Z,6.06
2018-12-08T05:05:20.714Z,5.96
2018-12-08T05:06:26.411Z,5.98
2018-12-08T05:07:32.027Z,6.15
2018-12-08T05:08:38.162Z,6.24
2018-12-08T05:09:45.037Z,6.21
2018-12-08T05:10:51.168Z,6.01
2018-12-08T05:11:56.787Z,5.93
2018-12-08T05:13:02.544Z,6.03
2018-12-08T05:14:08.186Z,6.14
2018-12-08T05:15:13.458Z,6.18
2018-12-08T05:16:19.767Z,5.99
2018-12-08T05:17:25.984Z,6.07
2018-12-08T05:18:31.629Z,6.04
2018-12-08T05:19:37.347Z,5.99
2018-12-08T05:20:43.010Z,6.06
2018-12-08T05:21:48.726Z,5.94
2018-12-08T05:22:55.876Z,5.99
2018-12-08T05:24:01.767Z,6.02
2018-12-08T05:25:06.774Z,6.12
2018-12-08T05:26:12.912Z,6.09
2018-12-08T05:27:18.540Z,6.15
2018-12-08T05:28:24.364Z,6.20
2018-12-08T05:29:29.976Z,6.05
2018-12-08T05:30:35.599Z,6.14
2018-12-08T05:31:41.773Z,6.23
2018-12-08T05:32:47.440Z,6.25
2018-12-08T05:33:53.061Z,6.15
2018-12-08T05:34:58.708Z,6.13
2018-12-08T05:36:04.018Z,6.20
2018-12-08T05:37:09.658Z,6.16
2018-12-08T05:38:15.244Z,6.17
2018-12-08T05:39:20.877Z,6.18
2018-12-08T05:40:26.495Z,6.06
2018-12-08T05:41:32.108Z,6.26
2018-12-08T05:42:37.500Z,6.15
2018-12-08T05:43:43.114Z,6.14
2018-12-08T05:44:48.775Z,6.05
2018-12-08T05:45:54.411Z,5.98
2018-12-08T05:47:00.069Z,5.90
2018-12-08T05:48:05.693Z,5.78
2018-12-08T05:49:11.291Z,5.91
2018-12-08T05:50:16.892Z,6.07
2018-12-08T05:51:22.531Z,6.08
2018-12-08T05:52:28.149Z,6.10
2018-12-08T05:53:33.788Z,5.95
2018-12-08T05:54:39.419Z,5.93
2018-12-08T05:55:45.031Z,5.95
2018-12-08T05:56:50.658Z,6.03
2018-12-08T05:57:56.428Z,5.97
2018-12-08T05:59:02.033Z,5.99
2018-12-08T06:00:06.732Z,5.99
2018-12-08T06:01:12.310Z,6.04
2018-12-08T06:02:17.957Z,5.95
2018-12-08T06:03:23.531Z,5.87
2018-12-08T06:04:29.190Z,5.82
2018-12-08T06:05:35.395Z,5.92
2018-12-08T06:06:41.512Z,5.80
2018-12-08T06:07:47.159Z,5.93
2018-12-08T06:08:52.797Z,5.88
2018-12-08T06:09:58.409Z,5.97
2018-12-08T06:11:04.031Z,5.92
2018-12-08T06:12:09.668Z,5.90
2018-12-08T06:13:15.287Z,5.90
2018-12-08T06:14:20.921Z,5.75
2018-12-08T06:15:26.560Z,5.78
2018-12-08T06:16:32.161Z,5.81
2018-12-08T06:17:38.415Z,5.84
2018-12-08T06:18:44.052Z,5.92
2018-12-08T06:19:49.704Z,5.89
2018-12-08T06:20:55.331Z,5.94
2018-12-08T06:22:01.027Z,5.97
2018-12-08T06:23:06.612Z,5.93
2018-12-08T06:24:12.208Z,5.92
2018-12-08T06:25:17.157Z,5.98
2018-12-08T06:26:22.785Z,5.95
2018-12-08T06:27:27.769Z,5.95
2018-12-08T06:28:33.444Z,6.00
2018-12-08T06:29:38.840Z,5.88
2018-12-08T06:30:44.462Z,5.88
2018-12-08T06:31:50.092Z,5.97
2018-12-08T06:32:55.733Z,6.06
2018-12-08T06:34:02.503Z,6.00
2018-12-08T06:35:12.932Z,5.98
2018-12-08T06:36:22.895Z,6.00
2018-12-08T06:37:32.259Z,5.89
2018-12-08T06:38:38.401Z,5.82
2018-12-08T06:39:43.952Z,5.76
2018-12-08T06:40:49.609Z,5.96
2018-12-08T06:41:55.229Z,5.99
2018-12-08T06:43:00.854Z,5.93
2018-12-08T06:44:06.516Z,5.95
2018-12-08T06:45:12.124Z,5.96
2018-12-08T06:46:17.725Z,6.02
2018-12-08T06:47:23.327Z,6.10
2018-12-08T06:48:28.900Z,6.01
2018-12-08T06:49:34.520Z,6.07
2018-12-08T06:50:40.144Z,6.04
2018-12-08T06:51:45.748Z,6.02
2018-12-08T06:52:51.380Z,5.90
2018-12-08T06:53:57.020Z,5.96
2018-12-08T06:55:02.337Z,5.87
2018-12-08T06:56:07.924Z,5.80
2018-12-08T06:57:13.544Z,5.72
2018-12-08T06:58:19.215Z,5.73
2018-12-08T06:59:24.811Z,5.76
2018-12-08T07:00:30.439Z,5.94
2018-12-08T07:01:36.024Z,5.82
2018-12-08T07:02:41.310Z,5.68
2018-12-08T07:03:46.948Z,5.79
2018-12-08T07:04:52.564Z,5.84
2018-12-08T07:05:58.140Z,5.93
2018-12-08T07:07:03.736Z,5.87
2018-12-08T07:08:09.984Z,5.96
2018-12-08T07:09:18.272Z,5.81
2018-12-08T07:10:25.891Z,5.66
2018-12-08T07:11:32.464Z,5.75
2018-12-08T07:12:39.042Z,5.81
2018-12-08T07:13:45.686Z,5.61
2018-12-08T07:14:52.446Z,5.59
2018-12-08T07:15:58.565Z,5.55
2018-12-08T07:17:04.233Z,5.68
2018-12-08T07:18:09.903Z,5.65
2018-12-08T07:19:16.679Z,5.67
2018-12-08T07:20:22.335Z,5.72
2018-12-08T07:21:27.644Z,5.68
2018-12-08T07:22:33.267Z,5.68
2018-12-08T07:23:38.911Z,5.69
2018-12-08T07:24:44.543Z,5.73
2018-12-08T07:25:50.199Z,5.75
2018-12-08T07:26:55.796Z,5.88
2018-12-08T07:28:01.401Z,5.83
2018-12-08T07:29:07.034Z,5.98
2018-12-08T07:30:12.327Z,6.11
2018-12-08T07:31:17.931Z,5.91
2018-12-08T07:32:23.553Z,5.90
2018-12-08T07:33:29.189Z,5.83
2018-12-08T07:34:34.787Z,5.75
2018-12-08T07:35:40.397Z,5.77
2018-12-08T07:36:46.373Z,5.77
2018-12-08T07:37:53.091Z,5.89
2018-12-08T07:38:59.273Z,6.04
2018-12-08T07:40:05.423Z,6.07
2018-12-08T07:41:12.492Z,6.09
2018-12-08T07:42:19.600Z,6.08
2018-12-08T07:43:27.165Z,6.21
2018-12-08T07:44:35.438Z,6.25
2018-12-08T07:45:41.677Z,6.26
2018-12-08T07:46:48.821Z,6.34
2018-12-08T07:47:55.573Z,6.29
2018-12-08T07:49:02.491Z,6.34
2018-12-08T07:50:09.335Z,6.40
2018-12-08T07:51:15.466Z,6.45
2018-12-08T07:52:21.795Z,6.54
2018-12-08T07:53:28.403Z,6.52
2018-12-08T07:54:34.572Z,6.60
2018-12-08T07:55:42.954Z,6.59
2018-12-08T07:56:54.527Z,6.59
2018-12-08T07:58:01.554Z,6.63
2018-12-08T07:59:08.189Z,6.59
2018-12-08T08:00:13.403Z,6.66
2018-12-08T08:01:21.287Z,6.75
2018-12-08T08:02:27.611Z,6.69
2018-12-08T08:03:33.439Z,6.66
2018-12-08T08:04:40.463Z,6.74
2018-12-08T08:05:48.097Z,6.60
2018-12-08T08:06:53.735Z,6.78
2018-12-08T08:08:00.861Z,6.91
2018-12-08T08:09:07.752Z,6.84
2018-12-08T08:10:14.156Z,6.81
2018-12-08T08:11:23.858Z,6.81
2018-12-08T08:12:32.734Z,6.88
2018-12-08T08:13:39.023Z,6.99
2018-12-08T08:14:46.300Z,6.93
2018-12-08T08:15:53.495Z,6.96
2018-12-08T08:17:00.410Z,6.94
2018-12-08T08:18:07.027Z,7.08
2018-12-08T08:19:13.501Z,7.14
2018-12-08T08:20:19.493Z,6.91
2018-12-08T08:21:26.041Z,6.92
2018-12-08T08:22:32.238Z,6.89
2018-12-08T08:23:38.729Z,6.97
2018-12-08T08:24:45.388Z,6.97
2018-12-08T08:25:51.593Z,7.04
2018-12-08T08:26:58.455Z,7.02
2018-12-08T08:28:05.598Z,6.93
2018-12-08T08:29:12.652Z,7.02
2018-12-08T08:30:19.516Z,7.11
2018-12-08T08:31:25.924Z,7.09
2018-12-08T08:32:31.502Z,7.05
2018-12-08T08:33:37.159Z,7.17
2018-12-08T08:34:42.761Z,7.13
2018-12-08T08:35:48.397Z,7.08
2018-12-08T08:36:54.025Z,6.98
2018-12-08T08:37:59.634Z,7.02
2018-12-08T08:39:04.563Z,7.22
2018-12-08T08:40:09.469Z,7.25
2018-12-08T08:41:14.763Z,7.31
2018-12-08T08:42:20.366Z,7.29
2018-12-08T08:43:27.143Z,7.27
2018-12-08T08:44:33.442Z,7.27
2018-12-08T08:45:39.075Z,7.32
2018-12-08T08:46:44.685Z,7.32
2018-12-08T08:47:50.269Z,7.39
2018-12-08T08:48:55.931Z,7.49
2018-12-08T08:50:01.574Z,7.51
2018-12-08T08:51:07.718Z,7.36
2018-12-08T08:52:13.574Z,7.38
2018-12-08T08:53:19.183Z,7.45
2018-12-08T08:54:24.941Z,7.45
2018-12-08T08:55:30.649Z,7.47
2018-12-08T08:56:35.900Z,7.44
2018-12-08T08:57:41.495Z,7.56
2018-12-08T08:58:47.508Z,7.58
2018-12-08T08:59:53.375Z,7.65
2018-12-08T09:00:58.961Z,7.55
2018-12-08T09:02:04.580Z,7.58
2018-12-08T09:03:10.230Z,7.60
2018-12-08T09:04:15.868Z,7.71
2018-12-08T09:05:21.139Z,7.70
2018-12-08T09:06:27.725Z,7.70
2018-12-08T09:07:34.589Z,7.71
2018-12-08T09:08:41.390Z,7.65
2018-12-08T09:09:48.983Z,7.75
2018-12-08T09:10:56.384Z,7.71
2018-12-08T09:12:03.356Z,7.75
2018-12-08T09:13:11.632Z,7.69
2018-12-08T09:14:18.164Z,7.70
2018-12-08T09:15:24.950Z,7.78
2018-12-08T09:16:32.487Z,7.78
2018-12-08T09:17:38.599Z,7.74
2018-12-08T09:18:44.254Z,7.67
2018-12-08T09:19:49.872Z,7.77
2018-12-08T09:20:55.513Z,7.72
2018-12-08T09:22:01.641Z,7.76
2018-12-08T09:23:07.370Z,7.86
2018-12-08T09:24:13.104Z,7.77
2018-12-08T09:25:18.690Z,7.79
2018-12-08T09:26:24.347Z,7.82
2018-12-08T09:27:31.040Z,7.79
2018-12-08T09:28:36.676Z,7.84
2018-12-08T09:29:41.976Z,7.92
2018-12-08T09:30:47.638Z,7.89
2018-12-08T09:31:53.291Z,7.87
2018-12-08T09:32:58.942Z,7.89
2018-12-08T09:34:04.281Z,7.91
2018-12-08T09:35:09.160Z,7.84
2018-12-08T09:36:14.752Z,7.90
2018-12-08T09:37:20.372Z,7.90
2018-12-08T09:38:26.031Z,7.89
2018-12-08T09:39:31.661Z,7.96
2018-12-08T09:40:37.304Z,7.99
2018-12-08T09:41:43.563Z,7.99
2018-12-08T09:42:49.399Z,8.04
2018-12-08T09:43:55.053Z,8.06
2018-12-08T09:45:00.970Z,8.07
2018-12-08T09:46:07.330Z,8.07
2018-12-08T09:47:12.934Z,7.96
2018-12-08T09:48:18.857Z,7.90
2018-12-08T09:49:24.988Z,8.06
2018-12-08T09:50:30.577Z,8.02
2018-12-08T09:51:35.781Z,8.08
2018-12-08T09:52:41.800Z,8.09
2018-12-08T09:53:47.693Z,8.14
2018-12-08T09:54:53.337Z,8.07
2018-12-08T09:55:58.971Z,8.14
2018-12-08T09:57:04.535Z,8.21
2018-12-08T09:58:09.451Z,8.18
2018-12-08T09:59:15.799Z,8.25
2018-12-08T10:00:22.443Z,8.33
2018-12-08T10:01:28.081Z,8.19
2018-12-08T10:02:33.790Z,8.18
2018-12-08T10:03:39.759Z,8.28
2018-12-08T10:04:45.860Z,8.26
2018-12-08T10:05:51.527Z,8.16
2018-12-08T10:06:57.114Z,8.14
2018-12-08T10:08:02.800Z,8.29
2018-12-08T10:09:07.724Z,8.29
2018-12-08T10:10:12.976Z,8.34
2018-12-08T10:11:18.548Z,8.39
2018-12-08T10:12:24.164Z,8.29
2018-12-08T10:13:29.792Z,8.35
2018-12-08T10:14:35.473Z,8.36
2018-12-08T10:15:41.081Z,8.38
2018-12-08T10:16:46.669Z,8.41
2018-12-08T10:17:52.291Z,8.35
2018-12-08T10:18:58.182Z,8.35
2018-12-08T10:20:03.802Z,8.33
2018-12-08T10:21:09.091Z,8.25
2018-12-08T10:22:14.760Z,8.25
2018-12-08T10:23:20.365Z,8.22
2018-12-08T10:24:25.989Z,8.22
2018-12-08T10:25:31.581Z,8.12
2018-12-08T10:26:37.245Z,8.18
2018-12-08T10:27:42.871Z,8.26
2018-12-08T10:28:48.479Z,8.20
2018-12-08T10:29:54.104Z,8.30
2018-12-08T10:30:59.718Z,8.32
2018-12-08T10:32:05.059Z,8.28
2018-12-08T10:33:10.495Z,8.22
2018-12-08T10:34:16.109Z,8.19
2018-12-08T10:35:21.725Z,8.26
2018-12-08T10:36:27.305Z,8.30
2018-12-08T10:37:32.925Z,8.25
2018-12-08T10:38:38.500Z,8.40
2018-12-08T10:39:44.678Z,8.45
2018-12-08T10:40:49.796Z,8.49
2018-12-08T10:41:55.400Z,8.50
2018-12-08T10:43:00.990Z,8.54
2018-12-08T10:44:06.265Z,8.61
2018-12-08T10:45:11.509Z,8.65
2018-12-08T10:46:17.115Z,8.64
2018-12-08T10:47:22.792Z,8.54
2018-12-08T10:48:28.411Z,8.55
2018-12-08T10:49:34.037Z,8.57
2018-12-08T10:50:39.708Z,8.49
2018-12-08T10:51:45.314Z,8.56
2018-12-08T10:52:50.945Z,8.54
2018-12-08T10:53:56.569Z,8.55
2018-12-08T10:55:02.200Z,8.56
2018-12-08T10:56:07.836Z,8.58
2018-12-08T10:57:13.472Z,8.69
2018-12-08T10:58:19.057Z,8.63
2018-12-08T10:59:24.667Z,8.65
2018-12-08T11:00:35.564Z,8.62
2018-12-08T11:01:46.483Z,8.63
2018-12-08T11:02:54.511Z,8.68
2018-12-08T11:04:00.102Z,8.74
2018-12-08T11:05:05.033Z,8.59
2018-12-08T11:06:10.641Z,8.67
2018-12-08T11:07:16.241Z,8.66
2018-12-08T11:08:21.913Z,8.83
2018-12-08T11:09:27.569Z,8.87
2018-12-08T11:10:33.257Z,8.90
2018-12-08T11:11:38.519Z,8.90
2018-12-08T11:12:43.833Z,8.94
2018-12-08T11:13:49.439Z,8.88
2018-12-08T11:15:00.713Z,8.86
2018-12-08T11:16:00.835Z,8.81
2018-12-08T11:17:06.412Z,8.80
2018-12-08T11:18:12.025Z,8.93
2018-12-08T11:19:17.685Z,8.98
2018-12-08T11:20:23.296Z,9.02
2018-12-08T11:21:28.604Z,9.01
2018-12-08T11:22:34.274Z,8.90
2018-12-08T11:23:39.890Z,8.96
2018-12-08T11:24:45.484Z,8.96
2018-12-08T11:25:51.111Z,9.05
2018-12-08T11:26:56.769Z,9.18
2018-12-08T11:28:02.424Z,9.24
2018-12-08T11:29:08.045Z,9.26
2018-12-08T11:30:13.323Z,9.27
2018-12-08T11:31:18.940Z,9.28
2018-12-08T11:32:24.530Z,9.31
2018-12-08T11:33:29.430Z,9.25
2018-12-08T11:34:35.038Z,9.24
2018-12-08T11:35:40.644Z,9.28
2018-12-08T11:36:49.626Z,9.37
2018-12-08T11:37:51.912Z,9.40
2018-12-08T11:38:57.489Z,9.48
2018-12-08T11:40:03.391Z,9.33
2018-12-08T11:41:09.017Z,9.31
2018-12-08T11:42:14.643Z,9.28
2018-12-08T11:43:20.290Z,9.30
2018-12-08T11:44:25.636Z,9.35
2018-12-08T11:45:31.249Z,9.40
2018-12-08T11:46:36.856Z,9.40
2018-12-08T11:47:42.466Z,9.33
2018-12-08T11:48:48.069Z,9.35
2018-12-08T11:49:53.694Z,9.31
2018-12-08T11:50:59.304Z,9.40
2018-12-08T11:52:05.285Z,9.42
2018-12-08T11:53:11.181Z,9.38
2018-12-08T11:54:16.838Z,9.19
2018-12-08T11:55:29.982Z,9.26
2018-12-08T11:56:28.115Z,9.31
2018-12-08T11:57:33.721Z,9.29
2018-12-08T11:58:38.962Z,9.21
2018-12-08T11:59:44.585Z,9.25
2018-12-08T12:00:50.281Z,9.30
2018-12-08T12:01:55.881Z,9.12
2018-12-08T12:03:01.470Z,9.19
2018-12-08T12:04:07.110Z,9.13
2018-12-08T12:05:12.412Z,9.16
2018-12-08T12:06:17.695Z,9.21
2018-12-08T12:07:23.299Z,9.31
2018-12-08T12:08:28.904Z,9.47
2018-12-08T12:09:34.528Z,9.48
2018-12-08T12:10:40.153Z,9.50
2018-12-08T12:11:45.753Z,9.56
2018-12-08T12:12:51.362Z,9.55
2018-12-08T12:13:56.986Z,9.61
2018-12-08T12:15:02.277Z,9.48
2018-12-08T12:16:08.005Z,9.40
2018-12-08T12:17:13.613Z,9.27
2018-12-08T12:18:19.194Z,9.20
2018-12-08T12:19:24.810Z,9.20
2018-12-08T12:20:30.180Z,9.17
2018-12-08T12:21:35.831Z,9.29
2018-12-08T12:22:41.466Z,9.29
2018-12-08T12:23:47.077Z,9.10
2018-12-08T12:24:52.687Z,9.05
2018-12-08T12:25:58.312Z,9.00
2018-12-08T12:27:03.647Z,8.99
2018-12-08T12:28:11.068Z,8.95
2018-12-08T12:29:14.876Z,8.87
2018-12-08T12:30:20.505Z,8.89
2018-12-08T12:31:25.840Z,8.92
2018-12-08T12:32:33.524Z,8.90
2018-12-08T12:33:39.247Z,8.80
2018-12-08T12:34:44.876Z,8.92
2018-12-08T12:35:50.539Z,8.88
2018-12-08T12:36:56.158Z,8.88
2018-12-08T12:38:01.801Z,8.94
2018-12-08T12:39:07.425Z,8.75
2018-12-08T12:40:12.700Z,8.82
2018-12-08T12:41:18.373Z,8.87
2018-12-08T12:42:23.987Z,8.84
2018-12-08T12:43:29.604Z,8.78
2018-12-08T12:44:35.210Z,8.75
2018-12-08T12:45:40.810Z,8.71
2018-12-08T12:46:46.519Z,8.75
2018-12-08T12:47:52.120Z,8.79
2018-12-08T12:48:57.738Z,8.80
2018-12-08T12:50:02.997Z,8.82
2018-12-08T12:51:08.647Z,8.72
2018-12-08T12:52:14.305Z,8.79
2018-12-08T12:53:20.284Z,8.92
2018-12-08T12:54:25.906Z,8.91
2018-12-08T12:55:31.539Z,8.81
2018-12-08T12:56:36.814Z,8.79
2018-12-08T12:57:42.458Z,8.85
2018-12-08T12:58:48.205Z,8.86
2018-12-08T12:59:53.840Z,8.87
2018-12-08T13:00:59.454Z,8.88
2018-12-08T13:02:05.096Z,8.82
2018-12-08T13:03:10.708Z,8.78
2018-12-08T13:04:16.327Z,8.85
2018-12-08T13:05:21.999Z,8.88
2018-12-08T13:06:27.424Z,8.87
2018-12-08T13:07:33.384Z,8.92
2018-12-08T13:08:38.983Z,8.94
2018-12-08T13:09:44.217Z,8.87
2018-12-08T13:10:49.861Z,8.84
2018-12-08T13:11:55.260Z,8.93
2018-12-08T13:13:00.907Z,9.03
2018-12-08T13:14:06.482Z,9.09
2018-12-08T13:15:12.052Z,9.17
2018-12-08T13:16:17.307Z,9.04
2018-12-08T13:17:22.896Z,9.06
2018-12-08T13:18:28.504Z,9.10
2018-12-08T13:19:34.209Z,8.98
2018-12-08T13:20:39.812Z,8.95
2018-12-08T13:21:45.484Z,8.95
2018-12-08T13:22:51.089Z,8.93
2018-12-08T13:23:56.718Z,8.95
2018-12-08T13:25:20.496Z,8.96
2018-12-08T13:26:26.138Z,8.82
2018-12-08T13:27:31.925Z,8.67
2018-12-08T13:28:37.580Z,8.65
2018-12-08T13:29:43.208Z,8.55
2018-12-08T13:30:48.463Z,8.51
2018-12-08T13:31:54.330Z,8.38
2018-12-08T13:32:59.948Z,8.41
2018-12-08T13:34:16.501Z,8.39
2018-12-08T13:35:33.125Z,8.31
2018-12-08T13:36:38.786Z,8.23
2018-12-08T13:37:44.414Z,8.19
2018-12-08T13:38:50.012Z,8.19
2018-12-08T13:39:55.689Z,8.13
2018-12-08T13:41:01.561Z,8.10
2018-12-08T13:42:07.264Z,8.17
2018-12-08T13:43:12.926Z,8.15
2018-12-08T13:44:34.044Z,8.08
2018-12-08T13:45:39.645Z,8.07
2018-12-08T13:46:45.335Z,8.07
2018-12-08T13:47:50.943Z,8.00
2018-12-08T13:48:56.597Z,8.03
2018-12-08T13:50:02.255Z,7.98
2018-12-08T13:51:07.672Z,8.00
2018-12-08T13:52:13.622Z,8.07
2018-12-08T13:53:19.968Z,8.14
2018-12-08T13:54:36.800Z,8.09
2018-12-08T13:55:42.959Z,8.15
2018-12-08T13:56:48.872Z,8.13
2018-12-08T13:57:54.483Z,8.12
2018-12-08T13:59:00.097Z,8.10
2018-12-08T14:00:05.017Z,8.01
2018-12-08T14:01:10.654Z,8.07
2018-12-08T14:02:16.281Z,8.15
2018-12-08T14:03:21.909Z,8.09
2018-12-08T14:04:28.124Z,8.12
2018-12-08T14:05:33.766Z,8.16
2018-12-08T14:06:39.388Z,8.20
2018-12-08T14:07:45.216Z,8.16
2018-12-08T14:08:51.013Z,8.17
2018-12-08T14:09:56.676Z,8.19
2018-12-08T14:11:02.279Z,8.16
2018-12-08T14:12:07.878Z,8.10
2018-12-08T14:13:13.513Z,8.14
2018-12-08T14:14:19.150Z,8.21
2018-12-08T14:15:25.024Z,8.31
2018-12-08T14:16:31.268Z,8.31
2018-12-08T14:17:36.309Z,8.21
2018-12-08T14:18:41.940Z,8.16
2018-12-08T14:19:47.536Z,8.20
2018-12-08T14:20:53.419Z,8.26
2018-12-08T14:21:59.081Z,8.25
2018-12-08T14:23:04.706Z,8.25
2018-12-08T14:24:10.954Z,8.32
2018-12-08T14:25:16.765Z,8.32
2018-12-08T14:26:22.387Z,8.32
2018-12-08T14:27:28.076Z,8.35
2018-12-08T14:28:33.691Z,8.32
2018-12-08T14:29:39.318Z,8.30
2018-12-08T14:30:44.944Z,8.42
2018-12-08T14:31:50.294Z,8.28
2018-12-08T14:32:55.916Z,8.26
2018-12-08T14:34:01.305Z,8.37
2018-12-08T14:35:06.244Z,8.43
2018-12-08T14:36:11.900Z,8.37